1861 Hurricane NOT_NAMED (1861255N13337)


IBTrACS version v04r00. Visit IBTrACS website for data access.
Please direct all questions to the IBTrACS Q and A forum

Storm track - Intensity - Wind Radii - Intensity Data - Source Data - All data

Summary Information

Storm ID 1861255N13337
Start Sep 11 12Z
Max Intensity 80 kt (Sep 17 06Z)
End Sep 19 12Z
ATCF IDs
Track status Best track data.

Storm track plot

Map of storm track

Intensity plots

Map of storm track

Radial wind information

No radial wind information for this storm


Position and Intensity Table

BASIN ISO_TIME_________ NATURE LAT LON MLC WIND
degrees north degrees east kts
NA 1861-09-11 12:00:00 TS 13.50 -23.40 30
NA 15:00:00 TS 13.75 -23.95 30
NA 18:00:00 TS 14.00 -24.50 30
NA 21:00:00 TS 14.26 -25.05 32
NA 1861-09-12 00:00:00 TS 14.50 -25.60 35
NA 03:00:00 TS 14.70 -26.15 35
NA 06:00:00 TS 14.90 -26.70 35
NA 09:00:00 TS 15.15 -27.25 35
NA 12:00:00 TS 15.40 -27.80 35
NA 15:00:00 TS 15.60 -28.35 35
NA 18:00:00 TS 15.80 -28.90 35
NA 21:00:00 TS 16.05 -29.45 37
NA 1861-09-13 00:00:00 TS 16.30 -30.00 40
NA 03:00:00 TS 16.50 -30.55 40
NA 06:00:00 TS 16.70 -31.10 40
NA 09:00:00 TS 16.95 -31.65 42
NA 12:00:00 TS 17.20 -32.20 45
NA 15:00:00 TS 17.40 -32.75 45
NA 18:00:00 TS 17.60 -33.30 45
NA 21:00:00 TS 17.85 -33.85 47
NA 1861-09-14 00:00:00 TS 18.10 -34.40 50
NA 03:00:00 TS 18.30 -34.95 50
NA 06:00:00 TS 18.50 -35.50 50
NA 09:00:00 TS 18.75 -36.05 52
NA 12:00:00 TS 19.00 -36.60 55
NA 15:00:00 TS 19.20 -37.15 55
NA 18:00:00 TS 19.40 -37.70 55
NA 21:00:00 TS 19.65 -38.25 57
NA 1861-09-15 00:00:00 TS 19.90 -38.80 60
NA 03:00:00 TS 20.10 -39.35 60
NA 06:00:00 TS 20.30 -39.90 60
NA 09:00:00 TS 20.55 -40.45 60
NA 12:00:00 TS 20.80 -41.00 60
NA 15:00:00 TS 21.00 -41.55 62
NA 18:00:00 TS 21.20 -42.10 65
NA 21:00:00 TS 21.45 -42.65 65
NA 1861-09-16 00:00:00 TS 21.70 -43.20 65
NA 03:00:00 TS 21.90 -43.75 65
NA 06:00:00 TS 22.10 -44.30 65
NA 09:00:00 TS 22.35 -44.85 67
NA 12:00:00 TS 22.60 -45.40 70
NA 15:00:00 TS 22.80 -45.96 70
NA 18:00:00 TS 23.00 -46.50 70
NA 21:00:00 TS 23.22 -47.01 72
NA 1861-09-17 00:00:00 TS 23.50 -47.50 75
NA 03:00:00 TS 23.88 -48.00 77
NA 06:00:00 TS 24.30 -48.50 80
NA 09:00:00 TS 24.70 -49.04 80
NA 12:00:00 TS 25.10 -49.50 80
NA 15:00:00 TS 25.50 -49.75 80
NA 18:00:00 TS 25.90 -49.90 80
NA 21:00:00 TS 26.27 -50.07 80
NA 1861-09-18 00:00:00 TS 26.70 -50.20 80
NA 03:00:00 TS 27.28 -50.31 77
NA 06:00:00 TS 27.90 -50.40 75
NA 09:00:00 TS 28.46 -50.50 72
NA 12:00:00 TS 29.00 -50.50 70
NA 15:00:00 TS 29.52 -50.30 70
NA 18:00:00 TS 30.00 -50.00 70
NA 21:00:00 TS 30.40 -49.88 67
NA 1861-09-19 00:00:00 TS 30.90 -49.50 65
NA 03:00:00 TS 31.65 -48.49 60
NA 06:00:00 TS 32.50 -47.20 55
NA 09:00:00 TS 33.32 -46.01 50
NA 12:00:00 ET 34.10 -44.90 45

Source Information

Agency Information
USA
TOKYO
CMA
HKO
NEWDELHI
REUNION
BOM
NADI
WELLINGTON
DS824
TD9636
TD9635
NEUMANN
MLC

All available IBTrACS Data

SEASON BASIN SUBBASIN ISO_TIME_________ NATURE LAT LON DIST2LAND LANDFALL IFLAG USA SSHS MLC LAT MLC LON MLC CLASS MLC WIND STORM SPEED STORM DIR
Year degrees north degrees east km km 1 degrees north degrees east kts kts degrees
1861 NA NA 1861-09-11 12:00:00 TS 13.50 -23.40 650 650 _____________O -1 13.50 -23.40 TD 30 12 295
1861 NA NA 15:00:00 TS 13.75 -23.95 699 699 _____________P -1 13.75 -23.95 TD 30 12 295
1861 NA NA 18:00:00 TS 14.00 -24.50 758 758 _____________O -1 14.00 -24.50 TD 30 12 296
1861 NA NA 21:00:00 TS 14.26 -25.05 819 819 _____________P -1 14.26 -25.05 TD 32 12 295
1861 NA NA 1861-09-12 00:00:00 TS 14.50 -25.60 872 872 _____________O -1 14.50 -25.60 TS 35 12 293
1861 NA NA 03:00:00 TS 14.70 -26.15 936 936 _____________P -1 14.70 -26.15 TS 35 11 291
1861 NA NA 06:00:00 TS 14.90 -26.70 989 989 _____________O -1 14.90 -26.70 TS 35 12 293
1861 NA NA 09:00:00 TS 15.15 -27.25 1054 1054 _____________P -1 15.15 -27.25 TS 35 12 295
1861 NA NA 12:00:00 TS 15.40 -27.80 1109 1109 _____________O -1 15.40 -27.80 TS 35 12 293
1861 NA NA 15:00:00 TS 15.60 -28.35 1174 1174 _____________P -1 15.60 -28.35 TS 35 11 291
1861 NA NA 18:00:00 TS 15.80 -28.90 1229 1229 _____________O -1 15.80 -28.90 TS 35 12 293
1861 NA NA 21:00:00 TS 16.05 -29.45 1295 1295 _____________P -1 16.05 -29.45 TS 37 12 295
1861 NA NA 1861-09-13 00:00:00 TS 16.30 -30.00 1351 1351 _____________O -1 16.30 -30.00 TS 40 12 293
1861 NA NA 03:00:00 TS 16.50 -30.55 1417 1417 _____________P -1 16.50 -30.55 TS 40 11 291
1861 NA NA 06:00:00 TS 16.70 -31.10 1473 1473 _____________O -1 16.70 -31.10 TS 40 11 293
1861 NA NA 09:00:00 TS 16.95 -31.65 1539 1539 _____________P -1 16.95 -31.65 TS 42 12 295
1861 NA NA 12:00:00 TS 17.20 -32.20 1596 1596 _____________O -1 17.20 -32.20 TS 45 11 293
1861 NA NA 15:00:00 TS 17.40 -32.75 1662 1662 _____________P -1 17.40 -32.75 TS 45 11 291
1861 NA NA 18:00:00 TS 17.60 -33.30 1718 1718 _____________O -1 17.60 -33.30 TS 45 11 293
1861 NA NA 21:00:00 TS 17.85 -33.85 1774 1784 _____________P -1 17.85 -33.85 TS 47 12 296
1861 NA NA 1861-09-14 00:00:00 TS 18.10 -34.40 1837 1837 _____________O -1 18.10 -34.40 TS 50 11 293
1861 NA NA 03:00:00 TS 18.30 -34.95 1895 1895 _____________P -1 18.30 -34.95 TS 50 11 291
1861 NA NA 06:00:00 TS 18.50 -35.50 1942 1942 _____________O -1 18.50 -35.50 TS 50 11 293
1861 NA NA 09:00:00 TS 18.75 -36.05 2000 1999 _____________P -1 18.75 -36.05 TS 52 12 296
1861 NA NA 12:00:00 TS 19.00 -36.60 2047 2047 _____________O -1 19.00 -36.60 TS 55 11 293
1861 NA NA 15:00:00 TS 19.20 -37.15 2106 2106 _____________P -1 19.20 -37.15 TS 55 11 291
1861 NA NA 18:00:00 TS 19.40 -37.70 2155 2155 _____________O -1 19.40 -37.70 TS 55 11 293
1861 NA NA 21:00:00 TS 19.65 -38.25 2214 2208 _____________P -1 19.65 -38.25 TS 57 12 296
1861 NA NA 1861-09-15 00:00:00 TS 19.90 -38.80 2210 2193 _____________O -1 19.90 -38.80 TS 60 11 294
1861 NA NA 03:00:00 TS 20.10 -39.35 2189 2175 _____________P -1 20.10 -39.35 TS 60 11 291
1861 NA NA 06:00:00 TS 20.30 -39.90 2175 2161 _____________O -1 20.30 -39.90 TS 60 11 294
1861 NA NA 09:00:00 TS 20.55 -40.45 2155 2146 _____________P -1 20.55 -40.45 TS 60 11 296
1861 NA NA 12:00:00 TS 20.80 -41.00 2149 2133 _____________O -1 20.80 -41.00 TS 60 11 294
1861 NA NA 15:00:00 TS 21.00 -41.55 2130 2119 _____________P -1 21.00 -41.55 TS 62 11 291
1861 NA NA 18:00:00 TS 21.20 -42.10 2119 2110 _____________O -1 21.20 -42.10 HU 65 11 294
1861 NA NA 21:00:00 TS 21.45 -42.65 2104 2102 _____________P -1 21.45 -42.65 HU 65 11 296
1861 NA NA 1861-09-16 00:00:00 TS 21.70 -43.20 2106 2096 _____________O -1 21.70 -43.20 HU 65 11 294
1861 NA NA 03:00:00 TS 21.90 -43.75 2095 2090 _____________P -1 21.90 -43.75 HU 65 11 291
1861 NA NA 06:00:00 TS 22.10 -44.30 2091 2086 _____________O -1 22.10 -44.30 HU 65 11 294
1861 NA NA 09:00:00 TS 22.35 -44.85 2084 2084 _____________P -1 22.35 -44.85 HU 67 11 296
1861 NA NA 12:00:00 TS 22.60 -45.40 2093 2085 _____________O -1 22.60 -45.40 HU 70 11 294
1861 NA NA 15:00:00 TS 22.80 -45.96 2086 2050 _____________P -1 22.80 -45.96 HU 70 11 292
1861 NA NA 18:00:00 TS 23.00 -46.50 2050 2004 _____________O -1 23.00 -46.50 HU 70 11 293
1861 NA NA 21:00:00 TS 23.22 -47.01 2004 1962 _____________P -1 23.22 -47.01 HU 72 10 299
1861 NA NA 1861-09-17 00:00:00 TS 23.50 -47.50 1962 1923 _____________O -1 23.50 -47.50 HU 75 11 306
1861 NA NA 03:00:00 TS 23.88 -48.00 1923 1887 _____________P -1 23.88 -48.00 HU 77 12 311
1861 NA NA 06:00:00 TS 24.30 -48.50 1887 1849 _____________O -1 24.30 -48.50 HU 80 13 311
1861 NA NA 09:00:00 TS 24.70 -49.04 1853 1821 _____________P -1 24.70 -49.04 HU 80 12 311
1861 NA NA 12:00:00 TS 25.10 -49.50 1821 1810 _____________O -1 25.10 -49.50 HU 80 10 321
1861 NA NA 15:00:00 TS 25.50 -49.75 1810 1810 _____________P -1 25.50 -49.75 HU 80 9 336
1861 NA NA 18:00:00 TS 25.90 -49.90 1818 1814 _____________O -1 25.90 -49.90 HU 80 8 340
1861 NA NA 21:00:00 TS 26.27 -50.07 1819 1819 _____________P -1 26.27 -50.07 HU 80 8 341
1861 NA NA 1861-09-18 00:00:00 TS 26.70 -50.20 1830 1830 _____________O -1 26.70 -50.20 HU 80 10 348
1861 NA NA 03:00:00 TS 27.28 -50.31 1853 1853 _____________P -1 27.28 -50.31 HU 77 12 352
1861 NA NA 06:00:00 TS 27.90 -50.40 1878 1878 _____________O -1 27.90 -50.40 HU 75 12 352
1861 NA NA 09:00:00 TS 28.46 -50.50 1905 1905 _____________P -1 28.46 -50.50 HU 72 11 355
1861 NA NA 12:00:00 TS 29.00 -50.50 1936 1920 _____________O -1 29.00 -50.50 HU 70 11 10
1861 NA NA 15:00:00 TS 29.52 -50.30 1920 1868 _____________P -1 29.52 -50.30 HU 70 11 24
1861 NA NA 18:00:00 TS 30.00 -50.00 1868 1825 _____________O -1 30.00 -50.00 HU 70 10 22
1861 NA NA 21:00:00 TS 30.40 -49.88 1825 1776 _____________P -1 30.40 -49.88 HU 67 10 26
1861 NA NA 1861-09-19 00:00:00 TS 30.90 -49.50 1776 1715 _____________O -1 30.90 -49.50 HU 65 17 44
1861 NA NA 03:00:00 TS 31.65 -48.49 1717 1647 _____________P -1 31.65 -48.49 HU 60 25 51
1861 NA NA 06:00:00 TS 32.50 -47.20 1649 1596 _____________O -1 32.50 -47.20 TS 55 27 51
1861 NA NA 09:00:00 TS 33.32 -46.01 1599 1551 _____________P -1 33.32 -46.01 TS 50 25 50
1861 NA NA 12:00:00 ET 34.10 -44.90 1555 _____________O -1 34.10 -44.90 EX 45 24 50